createdAt,value
2018-06-24T00:01:08.435Z,18.05
2018-06-24T00:03:37.847Z,18.11
2018-06-24T00:06:07.433Z,18.02
2018-06-24T00:08:36.982Z,17.97
2018-06-24T00:11:06.493Z,17.95
2018-06-24T00:13:35.992Z,17.96
2018-06-24T00:16:05.672Z,18.07
2018-06-24T00:18:35.137Z,18.10
2018-06-24T00:21:04.605Z,18.09
2018-06-24T00:23:34.064Z,18.05
2018-06-24T00:26:03.506Z,18.05
2018-06-24T00:28:32.934Z,18.24
2018-06-24T00:31:02.363Z,18.12
2018-06-24T00:33:31.833Z,18.15
2018-06-24T00:36:01.360Z,18.07
2018-06-24T00:38:30.775Z,18.05
2018-06-24T00:41:00.283Z,17.91
2018-06-24T00:43:29.874Z,17.87
2018-06-24T00:45:59.289Z,17.92
2018-06-24T00:48:28.786Z,17.83
2018-06-24T00:50:58.293Z,17.79
2018-06-24T00:53:27.816Z,17.82
2018-06-24T00:55:56.954Z,17.78
2018-06-24T00:58:26.498Z,17.84
2018-06-24T01:00:56.016Z,17.83
2018-06-24T01:03:25.486Z,17.75
2018-06-24T01:05:54.971Z,17.50
2018-06-24T01:08:24.474Z,17.53
2018-06-24T01:10:53.949Z,17.47
2018-06-24T01:13:23.379Z,17.51
2018-06-24T01:15:52.824Z,17.54
2018-06-24T01:18:22.429Z,17.44
2018-06-24T01:20:51.962Z,17.38
2018-06-24T01:23:21.424Z,17.50
2018-06-24T01:25:50.859Z,17.29
2018-06-24T01:28:20.416Z,17.40
2018-06-24T01:30:49.878Z,17.32
2018-06-24T01:33:19.392Z,17.40
2018-06-24T01:35:48.933Z,17.49
2018-06-24T01:38:18.511Z,17.42
2018-06-24T01:40:47.980Z,17.46
2018-06-24T01:43:17.414Z,17.37
2018-06-24T01:45:47.445Z,17.31
2018-06-24T01:48:16.589Z,17.23
2018-06-24T01:50:46.041Z,17.21
2018-06-24T01:53:15.475Z,16.95
2018-06-24T01:55:45.060Z,16.97
2018-06-24T01:58:14.476Z,17.01
2018-06-24T02:00:43.919Z,16.85
2018-06-24T02:03:13.425Z,16.91
2018-06-24T02:05:43.428Z,16.80
2018-06-24T02:08:12.930Z,16.87
2018-06-24T02:10:42.366Z,16.95
2018-06-24T02:13:11.843Z,16.71
2018-06-24T02:15:41.247Z,16.68
2018-06-24T02:18:10.676Z,16.65
2018-06-24T02:20:40.088Z,16.79
2018-06-24T02:23:09.628Z,16.93
2018-06-24T02:25:39.164Z,16.88
2018-06-24T02:28:08.611Z,16.91
2018-06-24T02:30:38.110Z,16.80
2018-06-24T02:33:07.712Z,16.96
2018-06-24T02:35:37.250Z,16.96
2018-06-24T02:38:06.866Z,16.89
2018-06-24T02:40:36.524Z,16.99
2018-06-24T02:43:06.027Z,16.93
2018-06-24T02:45:35.472Z,16.98
2018-06-24T02:48:04.922Z,16.99
2018-06-24T02:50:34.383Z,16.99
2018-06-24T02:53:04.175Z,17.00
2018-06-24T02:55:33.602Z,17.02
2018-06-24T02:58:03.063Z,17.08
2018-06-24T03:00:33.519Z,17.10
2018-06-24T03:03:02.998Z,16.96
2018-06-24T03:05:32.447Z,16.88
2018-06-24T03:08:01.851Z,16.95
2018-06-24T03:10:31.388Z,16.91
2018-06-24T03:13:00.924Z,16.87
2018-06-24T03:15:30.345Z,16.79
2018-06-24T03:17:59.798Z,16.82
2018-06-24T03:20:29.329Z,16.69
2018-06-24T03:22:58.843Z,16.57
2018-06-24T03:25:28.250Z,16.46
2018-06-24T03:27:57.748Z,16.48
2018-06-24T03:30:27.167Z,16.45
2018-06-24T03:32:56.577Z,16.47
2018-06-24T03:35:26.003Z,16.36
2018-06-24T03:37:55.536Z,16.36
2018-06-24T03:40:25.058Z,16.30
2018-06-24T03:42:54.476Z,16.50
2018-06-24T03:45:24.005Z,16.54
2018-06-24T03:47:53.581Z,16.54
2018-06-24T03:50:23.040Z,16.54
2018-06-24T03:52:52.628Z,16.55
2018-06-24T03:55:22.157Z,16.65
2018-06-24T03:57:51.748Z,16.59
2018-06-24T04:00:21.167Z,16.58
2018-06-24T04:02:50.592Z,16.67
2018-06-24T04:05:20.192Z,16.64
2018-06-24T04:07:49.814Z,16.78
2018-06-24T04:10:19.289Z,16.65
2018-06-24T04:12:48.740Z,16.78
2018-06-24T04:15:18.248Z,16.59
2018-06-24T04:17:47.670Z,16.81
2018-06-24T04:20:17.102Z,16.77
2018-06-24T04:22:46.893Z,16.79
2018-06-24T04:25:16.596Z,16.80
2018-06-24T04:27:46.157Z,16.70
2018-06-24T04:30:15.311Z,16.64
2018-06-24T04:32:44.943Z,16.46
2018-06-24T04:35:14.341Z,16.50
2018-06-24T04:37:44.025Z,16.63
2018-06-24T04:40:13.478Z,16.61
2018-06-24T04:42:43.054Z,16.76
2018-06-24T04:45:12.761Z,16.89
2018-06-24T04:47:42.501Z,17.02
2018-06-24T04:50:11.948Z,17.04
2018-06-24T04:52:41.492Z,17.21
2018-06-24T04:55:11.010Z,17.39
2018-06-24T04:57:40.468Z,17.43
2018-06-24T05:00:10.083Z,17.58
2018-06-24T05:02:39.656Z,17.73
2018-06-24T05:05:09.186Z,17.58
2018-06-24T05:07:39.236Z,17.72
2018-06-24T05:10:08.744Z,17.69
2018-06-24T05:12:38.221Z,17.63
2018-06-24T05:15:07.711Z,17.69
2018-06-24T05:17:37.335Z,17.59
2018-06-24T05:20:06.845Z,17.57
2018-06-24T05:22:36.474Z,17.64
2018-06-24T05:25:06.076Z,17.49
2018-06-24T05:27:35.584Z,17.58
2018-06-24T05:30:05.526Z,17.50
2018-06-24T05:32:35.106Z,17.51
2018-06-24T05:35:05.474Z,17.58
2018-06-24T05:37:35.762Z,17.59
2018-06-24T05:40:05.407Z,17.70
2018-06-24T05:42:34.883Z,17.51
2018-06-24T05:45:05.650Z,17.77
2018-06-24T05:47:36.176Z,18.27
2018-06-24T05:50:06.455Z,18.43
2018-06-24T05:52:36.069Z,18.49
2018-06-24T05:55:13.895Z,18.23
2018-06-24T05:57:52.508Z,18.02
2018-06-24T06:00:41.603Z,18.31
2018-06-24T06:03:27.794Z,18.36
2018-06-24T06:06:10.243Z,18.73
2018-06-24T06:08:53.573Z,18.76
2018-06-24T06:11:43.689Z,19.04
2018-06-24T06:14:31.907Z,19.33
2018-06-24T06:17:18.514Z,19.83
2018-06-24T06:20:04.055Z,19.80
2018-06-24T06:22:43.024Z,19.72
2018-06-24T06:25:23.578Z,19.69
2018-06-24T06:28:09.962Z,19.76
2018-06-24T06:30:47.638Z,19.47
2018-06-24T06:33:36.469Z,19.53
2018-06-24T06:36:15.703Z,19.85
2018-06-24T06:39:05.301Z,19.67
2018-06-24T06:42:16.505Z,19.92
2018-06-24T06:45:01.482Z,20.33
2018-06-24T06:53:10.863Z,20.24
2018-06-24T06:55:47.073Z,20.13
2018-06-24T06:58:27.641Z,20.11
2018-06-24T07:01:08.281Z,20.34
2018-06-24T07:03:53.620Z,20.35
2018-06-24T07:06:31.012Z,20.39
2018-06-24T07:09:13.444Z,20.57
2018-06-24T07:11:56.059Z,20.90
2018-06-24T07:14:39.912Z,20.61
2018-06-24T07:17:28.450Z,20.37
2018-06-24T07:20:09.480Z,20.98
2018-06-24T07:22:55.739Z,21.00
2018-06-24T07:25:37.472Z,20.91
2018-06-24T07:28:28.548Z,21.18
2018-06-24T07:31:34.098Z,21.29
2018-06-24T07:34:14.662Z,21.11
2018-06-24T07:37:15.501Z,21.55
2018-06-24T07:40:02.104Z,21.74
2018-06-24T07:43:02.888Z,21.38
2018-06-24T07:45:47.561Z,21.81
2018-06-24T07:48:34.823Z,22.12
2018-06-24T07:51:16.806Z,22.22
2018-06-24T07:54:33.237Z,22.82
2018-06-24T08:00:14.007Z,22.19
2018-06-24T08:02:50.372Z,22.74
2018-06-24T08:05:31.997Z,22.98
2018-06-24T08:08:12.371Z,22.97
2018-06-24T08:10:58.991Z,22.55
2018-06-24T08:13:43.562Z,22.97
2018-06-24T08:16:39.234Z,23.19
2018-06-24T08:19:18.059Z,23.16
2018-06-24T08:21:58.791Z,23.66
2018-06-24T08:24:36.622Z,23.71
2018-06-24T08:27:16.022Z,23.51
2018-06-24T08:29:54.703Z,23.40
2018-06-24T08:32:42.475Z,23.18
2018-06-24T08:35:21.386Z,23.21
2018-06-24T08:38:07.349Z,22.95
2018-06-24T08:40:43.243Z,23.16
2018-06-24T08:43:34.694Z,23.15
2018-06-24T08:46:16.704Z,23.82
2018-06-24T08:48:58.726Z,23.66
2018-06-24T08:51:37.078Z,23.58
2018-06-24T08:54:20.387Z,23.44
2018-06-24T08:57:00.242Z,23.57
2018-06-24T08:59:37.434Z,23.49
2018-06-24T09:02:18.426Z,23.88
2018-06-24T09:04:59.985Z,24.12
2018-06-24T09:07:39.822Z,24.46
2018-06-24T09:10:24.799Z,24.36
2018-06-24T09:13:08.008Z,23.98
2018-06-24T09:18:42.234Z,24.01
2018-06-24T09:21:21.514Z,24.63
2018-06-24T09:23:57.546Z,24.25
2018-06-24T09:26:39.726Z,24.94
2018-06-24T09:29:18.394Z,25.07
2018-06-24T09:31:59.625Z,25.26
2018-06-24T09:34:46.590Z,24.98
2018-06-24T09:37:26.060Z,25.68
2018-06-24T09:40:08.369Z,26.00
2018-06-24T09:42:53.440Z,26.06
2018-06-24T09:45:37.604Z,26.02
2018-06-24T09:48:27.183Z,25.35
2018-06-24T09:51:10.211Z,25.23
2018-06-24T09:54:21.286Z,25.65
2018-06-24T09:57:30.969Z,25.23
2018-06-24T10:00:16.173Z,25.12
2018-06-24T10:02:59.493Z,25.34
2018-06-24T10:06:01.813Z,25.23
2018-06-24T10:08:45.257Z,24.90
2018-06-24T10:11:25.710Z,25.94
2018-06-24T10:14:24.491Z,26.06
2018-06-24T10:17:04.354Z,27.15
2018-06-24T10:19:48.963Z,27.53
2018-06-24T10:22:33.219Z,27.33
2018-06-24T10:25:16.422Z,27.52
2018-06-24T10:27:58.678Z,27.44
2018-06-24T10:30:54.784Z,28.03
2018-06-24T10:36:41.479Z,28.59
2018-06-24T10:39:30.115Z,28.74
2018-06-24T10:42:07.330Z,28.28
2018-06-24T10:44:44.704Z,27.66
2018-06-24T10:50:20.344Z,29.78
2018-06-24T10:53:12.713Z,29.97
2018-06-24T10:55:50.315Z,29.04
2018-06-24T10:58:28.631Z,27.48
2018-06-24T11:01:11.112Z,27.92
2018-06-24T11:04:02.501Z,27.84
2018-06-24T11:06:43.064Z,27.85
2018-06-24T11:09:26.431Z,27.08
2018-06-24T11:12:18.882Z,27.51
2018-06-24T11:15:01.031Z,28.61
2018-06-24T11:17:38.099Z,28.70
2018-06-24T11:20:19.889Z,29.59
2018-06-24T11:22:49.615Z,31.55
2018-06-24T11:25:19.168Z,33.20
2018-06-24T11:27:48.598Z,31.70
2018-06-24T11:30:18.040Z,32.47
2018-06-24T11:32:47.581Z,31.96
2018-06-24T11:35:17.210Z,31.20
2018-06-24T11:37:47.266Z,31.50
2018-06-24T11:40:16.912Z,30.73
2018-06-24T11:42:46.766Z,29.75
2018-06-24T11:45:16.618Z,29.11
2018-06-24T11:47:46.649Z,29.60
2018-06-24T11:50:16.275Z,30.12
2018-06-24T11:52:48.816Z,31.00
2018-06-24T11:55:23.538Z,31.00
2018-06-24T11:57:53.107Z,32.73
2018-06-24T12:00:22.600Z,34.60
2018-06-24T12:02:52.133Z,34.90
2018-06-24T12:05:21.745Z,34.13
2018-06-24T12:07:51.245Z,33.06
2018-06-24T12:10:20.650Z,31.59
2018-06-24T12:12:50.698Z,30.17
2018-06-24T12:15:20.164Z,29.93
2018-06-24T12:17:50.521Z,28.33
2018-06-24T12:20:20.052Z,27.77
2018-06-24T12:22:49.594Z,27.81
2018-06-24T12:25:18.997Z,28.48
2018-06-24T12:27:48.558Z,28.17
2018-06-24T12:30:18.074Z,27.04
2018-06-24T12:32:47.599Z,27.07
2018-06-24T12:35:17.235Z,26.75
2018-06-24T12:37:46.768Z,26.73
2018-06-24T12:40:20.518Z,26.80
2018-06-24T12:42:50.117Z,26.55
2018-06-24T12:45:19.285Z,26.37
2018-06-24T12:47:48.830Z,26.53
2018-06-24T12:50:18.474Z,26.71
2018-06-24T12:52:48.017Z,26.99
2018-06-24T12:55:18.032Z,26.26
2018-06-24T12:57:47.800Z,26.25
2018-06-24T13:00:17.820Z,26.36
2018-06-24T13:02:46.827Z,26.16
2018-06-24T13:05:16.823Z,25.90
2018-06-24T13:07:46.366Z,26.42
2018-06-24T13:10:15.829Z,25.64
2018-06-24T13:12:45.290Z,25.66
2018-06-24T13:15:14.757Z,25.52
2018-06-24T13:17:44.242Z,25.57
2018-06-24T13:20:13.831Z,25.31
2018-06-24T13:22:43.906Z,25.27
2018-06-24T13:25:14.704Z,25.52
2018-06-24T13:27:44.350Z,25.46
2018-06-24T13:30:13.902Z,25.53
2018-06-24T13:32:43.506Z,25.76
2018-06-24T13:35:12.960Z,25.92
2018-06-24T13:37:42.494Z,25.84
2018-06-24T13:40:12.031Z,25.41
2018-06-24T13:42:41.625Z,25.24
2018-06-24T13:45:11.118Z,25.48
2018-06-24T13:47:40.573Z,25.75
2018-06-24T13:50:09.734Z,26.25
2018-06-24T13:52:39.253Z,25.91
2018-06-24T13:55:08.705Z,26.21
2018-06-24T13:57:38.297Z,25.48
2018-06-24T14:00:07.862Z,26.30
2018-06-24T14:02:37.296Z,26.41
2018-06-24T14:05:06.832Z,26.73
2018-06-24T14:07:36.394Z,26.02
2018-06-24T14:10:06.735Z,26.02
2018-06-24T14:12:36.023Z,26.28
2018-06-24T14:15:05.774Z,25.90
2018-06-24T14:17:35.487Z,25.34
2018-06-24T14:20:05.067Z,25.45
2018-06-24T14:22:34.361Z,25.48
2018-06-24T14:25:04.028Z,24.94
2018-06-24T14:27:33.617Z,24.63
2018-06-24T14:30:03.116Z,24.66
2018-06-24T14:32:32.668Z,24.43
2018-06-24T14:35:02.201Z,24.25
2018-06-24T14:37:31.717Z,23.94
2018-06-24T14:40:01.361Z,23.55
2018-06-24T14:42:30.811Z,23.49
2018-06-24T14:45:00.290Z,23.30
2018-06-24T14:47:29.899Z,23.56
2018-06-24T14:49:59.390Z,23.52
2018-06-24T14:52:28.815Z,23.44
2018-06-24T14:54:58.385Z,23.49
2018-06-24T14:57:27.984Z,23.50
2018-06-24T14:59:57.619Z,23.88
2018-06-24T15:02:27.175Z,24.03
2018-06-24T15:04:56.631Z,24.32
2018-06-24T15:07:26.085Z,24.50
2018-06-24T15:09:55.558Z,24.82
2018-06-24T15:12:25.075Z,25.30
2018-06-24T15:14:54.672Z,25.30
2018-06-24T15:17:24.424Z,25.30
2018-06-24T15:19:54.015Z,25.16
2018-06-24T15:22:23.557Z,25.64
2018-06-24T15:24:53.243Z,25.38
2018-06-24T15:27:22.836Z,25.17
2018-06-24T15:29:52.271Z,25.02
2018-06-24T15:32:21.963Z,24.64
2018-06-24T15:34:51.601Z,24.61
2018-06-24T15:37:21.241Z,24.43
2018-06-24T15:39:50.797Z,24.17
2018-06-24T15:42:21.216Z,23.59
2018-06-24T15:44:50.720Z,23.48
2018-06-24T15:47:30.163Z,23.62
2018-06-24T15:49:59.727Z,23.41
2018-06-24T15:52:29.290Z,23.35
2018-06-24T15:54:58.804Z,23.17
2018-06-24T15:57:28.325Z,22.98
2018-06-24T15:59:57.855Z,22.82
2018-06-24T16:02:27.259Z,23.00
2018-06-24T16:04:56.795Z,23.27
2018-06-24T16:07:26.322Z,23.40
2018-06-24T16:09:55.780Z,23.34
2018-06-24T16:12:25.267Z,23.29
2018-06-24T16:14:54.870Z,23.25
2018-06-24T16:17:24.392Z,23.29
2018-06-24T16:19:53.963Z,23.37
2018-06-24T16:22:23.456Z,23.28
2018-06-24T16:24:53.437Z,22.89
2018-06-24T16:27:23.021Z,22.87
2018-06-24T16:29:53.324Z,22.82
2018-06-24T16:32:23.863Z,22.83
2018-06-24T16:34:53.398Z,23.00
2018-06-24T16:37:22.936Z,22.79
2018-06-24T16:39:52.440Z,22.86
2018-06-24T16:42:21.894Z,22.84
2018-06-24T16:44:51.479Z,22.64
2018-06-24T16:47:21.167Z,22.71
2018-06-24T16:49:50.655Z,22.67
2018-06-24T16:52:20.535Z,22.69
2018-06-24T16:54:50.149Z,22.28
2018-06-24T16:57:19.943Z,22.14
2018-06-24T16:59:49.447Z,22.29
2018-06-24T17:02:18.936Z,22.16
2018-06-24T17:04:48.531Z,22.28
2018-06-24T17:07:18.232Z,22.25
2018-06-24T17:09:47.753Z,22.51
2018-06-24T17:12:17.180Z,22.36
2018-06-24T17:14:46.687Z,22.29
2018-06-24T17:17:16.260Z,21.56
2018-06-24T17:19:45.812Z,21.25
2018-06-24T17:22:15.336Z,21.40
2018-06-24T17:24:44.906Z,21.63
2018-06-24T17:27:14.421Z,21.72
2018-06-24T17:29:44.004Z,21.95
2018-06-24T17:32:13.475Z,22.00
2018-06-24T17:34:43.975Z,22.08
2018-06-24T17:37:13.527Z,21.99
2018-06-24T17:39:43.108Z,21.87
2018-06-24T17:42:13.325Z,21.78
2018-06-24T17:44:43.675Z,21.86
2018-06-24T17:47:15.005Z,21.87
2018-06-24T17:49:44.693Z,21.83
2018-06-24T17:52:14.141Z,21.77
2018-06-24T17:54:43.608Z,21.74
2018-06-24T17:57:13.076Z,21.66
2018-06-24T17:59:42.637Z,21.84
2018-06-24T18:02:12.460Z,21.87
2018-06-24T18:04:45.456Z,21.74
2018-06-24T18:07:14.875Z,21.65
2018-06-24T18:09:44.444Z,21.60
2018-06-24T18:12:13.987Z,21.68
2018-06-24T18:14:43.580Z,21.60
2018-06-24T18:17:13.037Z,21.45
2018-06-24T18:19:42.522Z,21.36
2018-06-24T18:22:12.047Z,21.18
2018-06-24T18:24:41.675Z,21.23
2018-06-24T18:27:11.078Z,21.13
2018-06-24T18:29:40.521Z,21.06
2018-06-24T18:32:10.063Z,21.15
2018-06-24T18:34:39.542Z,21.18
2018-06-24T18:37:09.135Z,21.30
2018-06-24T18:39:38.851Z,21.30
2018-06-24T18:42:08.444Z,21.26
2018-06-24T18:44:37.916Z,21.26
2018-06-24T18:47:07.490Z,21.34
2018-06-24T18:49:37.182Z,21.34
2018-06-24T18:52:06.972Z,21.21
2018-06-24T18:54:36.412Z,21.21
2018-06-24T18:57:05.934Z,20.84
2018-06-24T18:59:35.504Z,20.69
2018-06-24T19:02:05.188Z,20.73
2018-06-24T19:04:34.625Z,20.70
2018-06-24T19:07:07.858Z,20.27
2018-06-24T19:09:37.996Z,20.46
2018-06-24T19:12:08.397Z,20.47
2018-06-24T19:14:39.175Z,20.46
2018-06-24T19:17:10.173Z,20.35
2018-06-24T19:19:40.639Z,20.41
2018-06-24T19:22:12.058Z,20.34
2018-06-24T19:24:42.600Z,20.25
2018-06-24T19:27:12.881Z,20.14
2018-06-24T19:29:43.945Z,19.92
2018-06-24T19:32:13.914Z,19.93
2018-06-24T19:34:44.174Z,19.82
2018-06-24T19:37:14.321Z,19.74
2018-06-24T19:39:43.849Z,19.80
2018-06-24T19:42:14.248Z,19.74
2018-06-24T19:44:44.330Z,19.85
2018-06-24T19:47:15.368Z,19.91
2018-06-24T19:49:45.770Z,19.75
2018-06-24T19:52:16.369Z,19.63
2018-06-24T19:54:45.898Z,19.49
2018-06-24T20:00:13.355Z,19.36
2018-06-24T20:02:43.527Z,19.32
2018-06-24T20:05:13.650Z,19.14
2018-06-24T20:07:45.451Z,19.31
2018-06-24T20:10:14.907Z,19.12
2018-06-24T20:12:45.346Z,19.16
2018-06-24T20:15:15.949Z,19.22
2018-06-24T20:17:46.495Z,19.12
2018-06-24T20:20:17.091Z,19.21
2018-06-24T20:22:47.477Z,19.26
2018-06-24T20:25:18.951Z,19.45
2018-06-24T20:27:50.790Z,19.40
2018-06-24T20:30:21.111Z,19.36
2018-06-24T20:32:51.559Z,19.43
2018-06-24T20:35:22.739Z,19.47
2018-06-24T20:37:53.284Z,19.28
2018-06-24T20:40:24.632Z,19.26
2018-06-24T20:42:55.443Z,19.35
2018-06-24T20:45:25.559Z,19.29
2018-06-24T20:47:54.957Z,19.28
2018-06-24T20:50:25.310Z,19.30
2018-06-24T20:52:55.812Z,19.22
2018-06-24T20:55:25.478Z,19.18
2018-06-24T20:57:56.136Z,19.12
2018-06-24T21:00:25.682Z,19.08
2018-06-24T21:02:55.291Z,18.86
2018-06-24T21:05:24.961Z,19.14
2018-06-24T21:07:54.602Z,19.02
2018-06-24T21:10:24.093Z,19.16
2018-06-24T21:12:54.000Z,19.03
2018-06-24T21:15:23.764Z,19.15
2018-06-24T21:17:53.516Z,19.10
2018-06-24T21:20:23.080Z,19.10
2018-06-24T21:22:52.525Z,19.14
2018-06-24T21:25:22.134Z,18.98
2018-06-24T21:27:51.643Z,18.74
2018-06-24T21:30:21.081Z,18.55
2018-06-24T21:35:28.809Z,18.17
2018-06-24T21:37:58.373Z,18.06
2018-06-24T21:40:27.864Z,18.07
2018-06-24T21:42:57.356Z,18.08
2018-06-24T21:45:26.993Z,18.06
2018-06-24T21:47:57.134Z,17.92
2018-06-24T21:50:26.640Z,17.88
2018-06-24T21:52:56.095Z,17.86
2018-06-24T21:55:25.607Z,17.94
2018-06-24T21:57:55.124Z,17.93
2018-06-24T22:00:24.619Z,17.85
2018-06-24T22:02:54.999Z,17.94
2018-06-24T22:05:24.539Z,17.97
2018-06-24T22:07:54.047Z,17.98
2018-06-24T22:10:23.697Z,18.03
2018-06-24T22:12:53.131Z,18.16
2018-06-24T22:15:22.609Z,18.09
2018-06-24T22:17:52.026Z,18.07
2018-06-24T22:20:21.516Z,18.18
2018-06-24T22:22:51.021Z,18.18
2018-06-24T22:25:20.676Z,18.19
2018-06-24T22:27:50.254Z,18.25
2018-06-24T22:30:19.734Z,18.17
2018-06-24T22:32:49.177Z,18.27
2018-06-24T22:35:18.714Z,18.15
2018-06-24T22:37:48.146Z,18.08
2018-06-24T22:40:17.652Z,17.98
2018-06-24T22:42:47.200Z,18.16
2018-06-24T22:45:16.758Z,18.13
2018-06-24T22:47:46.186Z,18.16
2018-06-24T22:50:15.602Z,18.16
2018-06-24T22:52:45.134Z,18.15
2018-06-24T22:55:14.786Z,18.15
2018-06-24T22:57:44.196Z,18.31
2018-06-24T23:00:18.545Z,18.28
2018-06-24T23:02:47.674Z,18.27
2018-06-24T23:05:17.147Z,18.39
2018-06-24T23:07:46.727Z,18.13
2018-06-24T23:10:16.155Z,18.16
2018-06-24T23:12:45.567Z,18.16
2018-06-24T23:15:15.049Z,18.32
2018-06-24T23:17:44.637Z,18.23
2018-06-24T23:20:14.210Z,18.17
2018-06-24T23:22:43.651Z,18.13
2018-06-24T23:25:13.238Z,18.10
2018-06-24T23:27:42.852Z,18.19
2018-06-24T23:30:12.252Z,18.20
2018-06-24T23:32:41.689Z,18.17
2018-06-24T23:35:11.168Z,17.87
2018-06-24T23:37:40.586Z,18.07
2018-06-24T23:40:10.019Z,18.04
2018-06-24T23:42:39.454Z,18.01
2018-06-24T23:45:08.986Z,18.09
2018-06-24T23:47:38.430Z,18.21
2018-06-24T23:50:07.932Z,18.17
2018-06-24T23:52:37.423Z,18.09
2018-06-24T23:55:07.277Z,18.19
2018-06-24T23:57:36.703Z,18.17
